sensor_id;sensor_type;location;lat;lon;timestamp;pressure;altitude;pressure_sealevel;temperature;humidity
13348;BME280;6743;49.934;9.138;2024-01-16T00:00:22;99761.84;;;0.62;100.00
13348;BME280;6743;49.934;9.138;2024-01-16T00:02:48;99767.06;;;0.62;100.00
13348;BME280;6743;49.934;9.138;2024-01-16T00:05:15;99771.56;;;0.60;100.00
13348;BME280;6743;49.934;9.138;2024-01-16T00:07:41;99769.91;;;0.59;100.00
13348;BME280;6743;49.934;9.138;2024-01-16T00:10:07;99783.16;;;0.56;100.00
13348;BME280;6743;49.934;9.138;2024-01-16T00:12:33;99781.53;;;0.55;100.00
13348;BME280;6743;49.934;9.138;2024-01-16T00:14:59;99782.47;;;0.54;100.00
13348;BME280;6743;49.934;9.138;2024-01-16T00:17:26;99762.59;;;0.40;100.00
13348;BME280;6743;49.934;9.138;2024-01-16T00:19:52;99724.66;;;0.12;100.00
13348;BME280;6743;49.934;9.138;2024-01-16T00:22:18;99793.34;;;0.48;100.00
13348;BME280;6743;49.934;9.138;2024-01-16T00:24:44;99784.69;;;0.47;100.00
13348;BME280;6743;49.934;9.138;2024-01-16T00:27:11;99789.19;;;0.45;100.00
13348;BME280;6743;49.934;9.138;2024-01-16T00:29:37;99791.06;;;0.43;100.00
13348;BME280;6743;49.934;9.138;2024-01-16T00:32:04;99792.00;;;0.42;100.00
13348;BME280;6743;49.934;9.138;2024-01-16T00:34:31;99789.63;;;0.39;100.00
13348;BME280;6743;49.934;9.138;2024-01-16T00:36:57;99797.56;;;0.37;100.00
13348;BME280;6743;49.934;9.138;2024-01-16T00:39:22;99810.72;;;0.36;100.00
13348;BME280;6743;49.934;9.138;2024-01-16T00:41:48;99803.03;;;0.34;100.00
13348;BME280;6743;49.934;9.138;2024-01-16T00:44:14;99808.34;;;0.33;100.00
13348;BME280;6743;49.934;9.138;2024-01-16T00:46:40;99811.06;;;0.31;100.00
13348;BME280;6743;49.934;9.138;2024-01-16T00:49:06;99807.81;;;0.28;100.00
13348;BME280;6743;49.934;9.138;2024-01-16T00:51:33;99813.16;;;0.26;100.00
13348;BME280;6743;49.934;9.138;2024-01-16T00:54:00;99824.22;;;0.30;100.00
13348;BME280;6743;49.934;9.138;2024-01-16T00:56:26;99823.25;;;0.31;100.00
13348;BME280;6743;49.934;9.138;2024-01-16T00:58:53;99828.59;;;0.29;100.00
13348;BME280;6743;49.934;9.138;2024-01-16T01:01:22;99825.28;;;0.27;100.00
13348;BME280;6743;49.934;9.138;2024-01-16T01:03:48;99834.75;;;0.28;100.00
13348;BME280;6743;49.934;9.138;2024-01-16T01:06:14;99824.31;;;0.28;100.00
13348;BME280;6743;49.934;9.138;2024-01-16T01:08:41;99821.84;;;0.27;100.00
13348;BME280;6743;49.934;9.138;2024-01-16T01:11:07;99815.78;;;0.26;100.00
13348;BME280;6743;49.934;9.138;2024-01-16T01:13:33;99815.66;;;0.28;100.00
13348;BME280;6743;49.934;9.138;2024-01-16T01:15:59;99829.66;;;0.27;100.00
13348;BME280;6743;49.934;9.138;2024-01-16T01:18:25;99833.91;;;0.28;100.00
13348;BME280;6743;49.934;9.138;2024-01-16T01:20:51;99821.22;;;0.23;100.00
13348;BME280;6743;49.934;9.138;2024-01-16T01:23:17;99836.66;;;0.26;100.00
13348;BME280;6743;49.934;9.138;2024-01-16T01:25:44;99834.75;;;0.28;100.00
13348;BME280;6743;49.934;9.138;2024-01-16T01:28:10;99832.13;;;0.28;100.00
13348;BME280;6743;49.934;9.138;2024-01-16T01:30:38;99838.91;;;0.31;100.00
13348;BME280;6743;49.934;9.138;2024-01-16T01:33:04;99845.91;;;0.30;100.00
13348;BME280;6743;49.934;9.138;2024-01-16T01:35:31;99845.81;;;0.32;100.00
13348;BME280;6743;49.934;9.138;2024-01-16T01:37:58;99848.53;;;0.30;100.00
13348;BME280;6743;49.934;9.138;2024-01-16T01:40:24;99858.84;;;0.32;100.00
13348;BME280;6743;49.934;9.138;2024-01-16T01:42:51;99858.75;;;0.33;100.00
13348;BME280;6743;49.934;9.138;2024-01-16T01:45:17;99863.03;;;0.34;100.00
13348;BME280;6743;49.934;9.138;2024-01-16T01:47:43;99865.75;;;0.33;100.00
13348;BME280;6743;49.934;9.138;2024-01-16T01:50:09;99880.31;;;0.35;100.00
13348;BME280;6743;49.934;9.138;2024-01-16T01:52:36;99876.88;;;0.35;100.00
13348;BME280;6743;49.934;9.138;2024-01-16T01:55:06;99871.66;;;0.35;100.00
13348;BME280;6743;49.934;9.138;2024-01-16T01:57:33;99879.37;;;0.36;100.00
13348;BME280;6743;49.934;9.138;2024-01-16T02:00:01;99885.53;;;0.35;100.00
13348;BME280;6743;49.934;9.138;2024-01-16T02:02:29;99889.81;;;0.36;100.00
13348;BME280;6743;49.934;9.138;2024-01-16T02:04:55;99880.22;;;0.37;100.00
13348;BME280;6743;49.934;9.138;2024-01-16T02:07:21;99891.50;;;0.37;100.00
13348;BME280;6743;49.934;9.138;2024-01-16T02:09:48;99894.09;;;0.37;100.00
13348;BME280;6743;49.934;9.138;2024-01-16T02:12:14;99890.56;;;0.38;100.00
13348;BME280;6743;49.934;9.138;2024-01-16T02:14:40;99891.38;;;0.39;100.00
13348;BME280;6743;49.934;9.138;2024-01-16T02:17:07;99891.28;;;0.41;100.00
13348;BME280;6743;49.934;9.138;2024-01-16T02:19:33;99885.09;;;0.42;100.00
13348;BME280;6743;49.934;9.138;2024-01-16T02:22:00;99900.66;;;0.43;100.00
13348;BME280;6743;49.934;9.138;2024-01-16T02:24:27;99897.94;;;0.45;100.00
13348;BME280;6743;49.934;9.138;2024-01-16T02:26:53;99885.69;;;0.34;100.00
13348;BME280;6743;49.934;9.138;2024-01-16T02:29:19;99895.53;;;0.42;100.00
13348;BME280;6743;49.934;9.138;2024-01-16T02:31:45;99900.66;;;0.43;100.00
13348;BME280;6743;49.934;9.138;2024-01-16T02:34:11;99898.16;;;0.42;100.00
13348;BME280;6743;49.934;9.138;2024-01-16T02:36:38;99896.50;;;0.41;100.00
13348;BME280;6743;49.934;9.138;2024-01-16T02:39:04;99898.16;;;0.42;100.00
13348;BME280;6743;49.934;9.138;2024-01-16T02:41:32;99900.06;;;0.39;100.00
13348;BME280;6743;49.934;9.138;2024-01-16T02:43:58;99860.03;;;0.15;100.00
13348;BME280;6743;49.934;9.138;2024-01-16T02:46:24;99895.03;;;0.36;100.00
13348;BME280;6743;49.934;9.138;2024-01-16T02:48:50;99895.97;;;0.35;100.00
13348;BME280;6743;49.934;9.138;2024-01-16T02:51:16;99894.19;;;0.36;100.00
13348;BME280;6743;49.934;9.138;2024-01-16T02:53:42;99899.66;;;0.33;100.00
13348;BME280;6743;49.934;9.138;2024-01-16T02:56:08;99897.34;;;0.28;100.00
13348;BME280;6743;49.934;9.138;2024-01-16T02:58:35;99891.31;;;0.28;100.00
13348;BME280;6743;49.934;9.138;2024-01-16T03:01:01;99899.25;;;0.26;100.00
13348;BME280;6743;49.934;9.138;2024-01-16T03:03:28;99896.53;;;0.28;100.00
13348;BME280;6743;49.934;9.138;2024-01-16T03:05:54;99893.22;;;0.26;100.00
13348;BME280;6743;49.934;9.138;2024-01-16T03:08:21;99908.03;;;0.25;100.00
13348;BME280;6743;49.934;9.138;2024-01-16T03:10:47;99902.81;;;0.25;100.00
13348;BME280;6743;49.934;9.138;2024-01-16T03:13:13;99901.13;;;0.24;100.00
13348;BME280;6743;49.934;9.138;2024-01-16T03:15:39;99898.62;;;0.23;100.00
13348;BME280;6743;49.934;9.138;2024-01-16T03:18:06;99897.69;;;0.24;100.00
13348;BME280;6743;49.934;9.138;2024-01-16T03:20:32;99898.72;;;0.21;100.00
13348;BME280;6743;49.934;9.138;2024-01-16T03:22:58;99894.56;;;0.19;100.00
13348;BME280;6743;49.934;9.138;2024-01-16T03:25:24;99898.97;;;0.18;100.00
13348;BME280;6743;49.934;9.138;2024-01-16T03:27:50;99901.78;;;0.15;100.00
13348;BME280;6743;49.934;9.138;2024-01-16T03:30:16;99900.00;;;0.16;100.00
13348;BME280;6743;49.934;9.138;2024-01-16T03:32:43;99901.78;;;0.15;100.00
13348;BME280;6743;49.934;9.138;2024-01-16T03:35:09;99870.84;;;-0.02;100.00
13348;BME280;6743;49.934;9.138;2024-01-16T03:37:35;99897.50;;;0.14;100.00
13348;BME280;6743;49.934;9.138;2024-01-16T03:40:03;99897.38;;;0.16;100.00
13348;BME280;6743;49.934;9.138;2024-01-16T03:42:29;99900.84;;;0.16;100.00
13348;BME280;6743;49.934;9.138;2024-01-16T03:44:55;99892.50;;;0.11;100.00
13348;BME280;6743;49.934;9.138;2024-01-16T03:47:24;99897.62;;;0.13;100.00
13348;BME280;6743;49.934;9.138;2024-01-16T03:49:50;99907.13;;;0.14;100.00
13348;BME280;6743;49.934;9.138;2024-01-16T03:52:17;99898.66;;;0.10;100.00
13348;BME280;6743;49.934;9.138;2024-01-16T03:54:43;99892.50;;;0.11;100.00
13348;BME280;6743;49.934;9.138;2024-01-16T03:57:09;99897.81;;;0.10;100.00
13348;BME280;6743;49.934;9.138;2024-01-16T03:59:37;99889.25;;;0.08;100.00
13348;BME280;6743;49.934;9.138;2024-01-16T04:02:03;99887.09;;;0.02;100.00
13348;BME280;6743;49.934;9.138;2024-01-16T04:04:29;99885.22;;;0.04;100.00
13348;BME280;6743;49.934;9.138;2024-01-16T04:06:56;99891.47;;;0.01;100.00
13348;BME280;6743;49.934;9.138;2024-01-16T04:09:22;99888.03;;;0.00;100.00
13348;BME280;6743;49.934;9.138;2024-01-16T04:11:50;99893.97;;;0.03;100.00
13348;BME280;6743;49.934;9.138;2024-01-16T04:14:15;99891.47;;;0.01;100.00
13348;BME280;6743;49.934;9.138;2024-01-16T04:16:45;99896.59;;;0.03;100.00
13348;BME280;6743;49.934;9.138;2024-01-16T04:19:11;99890.62;;;0.00;100.00
13348;BME280;6743;49.934;9.138;2024-01-16T04:21:37;99896.69;;;0.01;100.00
13348;BME280;6743;49.934;9.138;2024-01-16T04:24:04;99896.59;;;0.03;100.00
13348;BME280;6743;49.934;9.138;2024-01-16T04:26:30;99893.97;;;0.03;100.00
13348;BME280;6743;49.934;9.138;2024-01-16T04:28:56;99897.53;;;0.02;100.00
13348;BME280;6743;49.934;9.138;2024-01-16T04:31:22;99902.03;;;-0.01;100.00
13348;BME280;6743;49.934;9.138;2024-01-16T04:33:48;99890.88;;;-0.03;100.00
13348;BME280;6743;49.934;9.138;2024-01-16T04:36:14;99894.41;;;-0.04;100.00
13348;BME280;6743;49.934;9.138;2024-01-16T04:38:40;99903.25;;;-0.06;100.00
13348;BME280;6743;49.934;9.138;2024-01-16T04:41:07;99893.78;;;-0.07;100.00
13348;BME280;6743;49.934;9.138;2024-01-16T04:43:33;99895.56;;;-0.08;100.00
13348;BME280;6743;49.934;9.138;2024-01-16T04:45:59;99892.97;;;-0.08;100.00
13348;BME280;6743;49.934;9.138;2024-01-16T04:48:25;99900.16;;;-0.11;100.00
13348;BME280;6743;49.934;9.138;2024-01-16T04:50:51;99894.19;;;-0.13;100.00
13348;BME280;6743;49.934;9.138;2024-01-16T04:53:17;99901.81;;;-0.10;100.00
13348;BME280;6743;49.934;9.138;2024-01-16T04:55:43;99894.09;;;-0.12;100.00
13348;BME280;6743;49.934;9.138;2024-01-16T04:58:10;99888.88;;;-0.12;100.00
13348;BME280;6743;49.934;9.138;2024-01-16T05:00:36;99888.88;;;-0.12;100.00
13348;BME280;6743;49.934;9.138;2024-01-16T05:03:03;99902.84;;;-0.13;100.00
13348;BME280;6743;49.934;9.138;2024-01-16T05:05:30;99899.41;;;-0.13;100.00
13348;BME280;6743;49.934;9.138;2024-01-16T05:07:56;99901.31;;;-0.15;100.00
13348;BME280;6743;49.934;9.138;2024-01-16T05:10:22;99889.94;;;-0.14;100.00
13348;BME280;6743;49.934;9.138;2024-01-16T05:12:48;99895.16;;;-0.14;100.00
13348;BME280;6743;49.934;9.138;2024-01-16T05:15:14;99886.50;;;-0.15;100.00
13348;BME280;6743;49.934;9.138;2024-01-16T05:17:40;99882.94;;;-0.14;100.00
13348;BME280;6743;49.934;9.138;2024-01-16T05:20:07;99892.56;;;-0.14;100.00
13348;BME280;6743;49.934;9.138;2024-01-16T05:22:34;99890.75;;;-0.14;100.00
13348;BME280;6743;49.934;9.138;2024-01-16T05:25:00;99888.28;;;-0.15;100.00
13348;BME280;6743;49.934;9.138;2024-01-16T05:27:26;99885.66;;;-0.15;100.00
13348;BME280;6743;49.934;9.138;2024-01-16T05:29:52;99885.53;;;-0.14;100.00
13348;BME280;6743;49.934;9.138;2024-01-16T05:32:18;99878.56;;;-0.13;100.00
13348;BME280;6743;49.934;9.138;2024-01-16T05:34:44;99874.91;;;-0.11;100.00
13348;BME280;6743;49.934;9.138;2024-01-16T05:37:12;99873.25;;;-0.12;100.00
13348;BME280;6743;49.934;9.138;2024-01-16T05:39:38;99882.72;;;-0.11;100.00
13348;BME280;6743;49.934;9.138;2024-01-16T05:42:04;99881.91;;;-0.11;100.00
13348;BME280;6743;49.934;9.138;2024-01-16T05:44:31;99882.94;;;-0.14;100.00
13348;BME280;6743;49.934;9.138;2024-01-16T05:46:57;99879.53;;;-0.14;100.00
13348;BME280;6743;49.934;9.138;2024-01-16T05:49:25;99876.28;;;-0.18;100.00
13348;BME280;6743;49.934;9.138;2024-01-16T05:51:51;99882.31;;;-0.17;100.00
13348;BME280;6743;49.934;9.138;2024-01-16T05:54:17;99890.97;;;-0.17;100.00
13348;BME280;6743;49.934;9.138;2024-01-16T05:56:43;99890.88;;;-0.15;100.00
13348;BME280;6743;49.934;9.138;2024-01-16T05:59:09;99897.88;;;-0.16;100.00
13348;BME280;6743;49.934;9.138;2024-01-16T06:01:35;99888.38;;;-0.17;100.00
13348;BME280;6743;49.934;9.138;2024-01-16T06:04:01;99884.09;;;-0.18;100.00
13348;BME280;6743;49.934;9.138;2024-01-16T06:06:28;99889.41;;;-0.19;100.00
13348;BME280;6743;49.934;9.138;2024-01-16T06:08:54;99882.84;;;-0.25;100.00
13348;BME280;6743;49.934;9.138;2024-01-16T06:11:29;99878.47;;;-0.24;100.00
13348;BME280;6743;49.934;9.138;2024-01-16T06:13:55;99884.94;;;-0.30;100.00
13348;BME280;6743;49.934;9.138;2024-01-16T06:16:21;99880.47;;;-0.28;100.00
13348;BME280;6743;49.934;9.138;2024-01-16T06:18:47;99876.81;;;-0.25;100.00
13348;BME280;6743;49.934;9.138;2024-01-16T06:21:13;99872.41;;;-0.25;100.00
13348;BME280;6743;49.934;9.138;2024-01-16T06:23:43;99872.41;;;-0.25;100.00
13348;BME280;6743;49.934;9.138;2024-01-16T06:26:10;99868.88;;;-0.24;100.00
13348;BME280;6743;49.934;9.138;2024-01-16T06:28:39;99863.56;;;-0.22;100.00
13348;BME280;6743;49.934;9.138;2024-01-16T06:31:07;99838.47;;;-0.36;100.00
13348;BME280;6743;49.934;9.138;2024-01-16T06:33:33;99796.56;;;-0.58;100.00
13348;BME280;6743;49.934;9.138;2024-01-16T06:35:59;99853.84;;;-0.20;100.00
13348;BME280;6743;49.934;9.138;2024-01-16T06:38:25;99859.06;;;-0.20;100.00
13348;BME280;6743;49.934;9.138;2024-01-16T06:40:52;99857.53;;;-0.23;100.00
13348;BME280;6743;49.934;9.138;2024-01-16T06:43:18;99854.06;;;-0.23;100.00
13348;BME280;6743;49.934;9.138;2024-01-16T06:45:44;99805.53;;;-0.50;100.00
13348;BME280;6743;49.934;9.138;2024-01-16T06:48:12;99845.31;;;-0.22;100.00
13348;BME280;6743;49.934;9.138;2024-01-16T06:50:38;99820.41;;;-0.39;100.00
13348;BME280;6743;49.934;9.138;2024-01-16T06:53:04;99839.38;;;-0.24;100.00
13348;BME280;6743;49.934;9.138;2024-01-16T06:55:30;99852.50;;;-0.26;100.00
13348;BME280;6743;49.934;9.138;2024-01-16T06:57:57;99832.50;;;-0.38;100.00
13348;BME280;6743;49.934;9.138;2024-01-16T07:00:23;99843.44;;;-0.33;100.00
13348;BME280;6743;49.934;9.138;2024-01-16T07:02:51;99840.44;;;-0.40;100.00
13348;BME280;6743;49.934;9.138;2024-01-16T07:05:17;99842.31;;;-0.42;100.00
13348;BME280;6743;49.934;9.138;2024-01-16T07:07:43;99840.66;;;-0.43;100.00
13348;BME280;6743;49.934;9.138;2024-01-16T07:10:09;99837.31;;;-0.45;100.00
13348;BME280;6743;49.934;9.138;2024-01-16T07:12:40;99842.72;;;-0.48;100.00
13348;BME280;6743;49.934;9.138;2024-01-16T07:15:08;99849.69;;;-0.48;100.00
13348;BME280;6743;49.934;9.138;2024-01-16T07:17:37;99844.62;;;-0.50;100.00
13348;BME280;6743;49.934;9.138;2024-01-16T07:20:03;99853.28;;;-0.49;100.00
13348;BME280;6743;49.934;9.138;2024-01-16T07:22:32;99863.78;;;-0.51;100.00
13348;BME280;6743;49.934;9.138;2024-01-16T07:25:01;99869.00;;;-0.51;100.00
13348;BME280;6743;49.934;9.138;2024-01-16T07:27:27;99872.44;;;-0.50;100.00
13348;BME280;6743;49.934;9.138;2024-01-16T07:29:53;99830.63;;;-0.74;100.00
13348;BME280;6743;49.934;9.138;2024-01-16T07:32:20;99881.09;;;-0.50;100.00
13348;BME280;6743;49.934;9.138;2024-01-16T07:34:46;99855.16;;;-0.64;100.00
13348;BME280;6743;49.934;9.138;2024-01-16T07:37:12;99882.88;;;-0.50;100.00
13348;BME280;6743;49.934;9.138;2024-01-16T07:39:38;99887.97;;;-0.49;100.00
13348;BME280;6743;49.934;9.138;2024-01-16T07:42:04;99890.44;;;-0.47;100.00
13348;BME280;6743;49.934;9.138;2024-01-16T07:44:34;99865.56;;;-0.64;100.00
13348;BME280;6743;49.934;9.138;2024-01-16T07:47:00;99892.97;;;-0.46;100.00
13348;BME280;6743;49.934;9.138;2024-01-16T07:49:26;99887.84;;;-0.47;100.00
13348;BME280;6743;49.934;9.138;2024-01-16T07:51:52;99865.75;;;-0.54;100.00
13348;BME280;6743;49.934;9.138;2024-01-16T07:54:18;99887.56;;;-0.43;100.00
13348;BME280;6743;49.934;9.138;2024-01-16T07:56:44;99895.25;;;-0.41;100.00
13348;BME280;6743;49.934;9.138;2024-01-16T07:59:11;99889.94;;;-0.40;100.00
13348;BME280;6743;49.934;9.138;2024-01-16T08:01:37;99904.53;;;-0.37;100.00
13348;BME280;6743;49.934;9.138;2024-01-16T08:04:03;99895.78;;;-0.36;100.00
13348;BME280;6743;49.934;9.138;2024-01-16T08:06:30;99902.69;;;-0.35;100.00
13348;BME280;6743;49.934;9.138;2024-01-16T08:08:57;99901.63;;;-0.32;100.00
13348;BME280;6743;49.934;9.138;2024-01-16T08:11:23;99901.50;;;-0.31;100.00
13348;BME280;6743;49.934;9.138;2024-01-16T08:13:49;99901.41;;;-0.29;100.00
13348;BME280;6743;49.934;9.138;2024-01-16T08:16:15;99908.41;;;-0.30;100.00
13348;BME280;6743;49.934;9.138;2024-01-16T08:18:41;99913.53;;;-0.28;100.00
13348;BME280;6743;49.934;9.138;2024-01-16T08:21:09;99909.13;;;-0.28;100.00
13348;BME280;6743;49.934;9.138;2024-01-16T08:23:36;99909.00;;;-0.26;100.00
13348;BME280;6743;49.934;9.138;2024-01-16T08:26:02;99907.25;;;-0.26;100.00
13348;BME280;6743;49.934;9.138;2024-01-16T08:28:28;99910.59;;;-0.24;100.00
13348;BME280;6743;49.934;9.138;2024-01-16T08:31:00;99913.09;;;-0.22;100.00
13348;BME280;6743;49.934;9.138;2024-01-16T08:33:26;99915.47;;;-0.19;100.00
13348;BME280;6743;49.934;9.138;2024-01-16T08:35:52;99911.19;;;-0.20;100.00
13348;BME280;6743;49.934;9.138;2024-01-16T08:38:18;99905.06;;;-0.19;100.00
13348;BME280;6743;49.934;9.138;2024-01-16T08:40:45;99903.19;;;-0.17;100.00
13348;BME280;6743;49.934;9.138;2024-01-16T08:43:10;99918.72;;;-0.16;100.00
13348;BME280;6743;49.934;9.138;2024-01-16T08:45:36;99918.63;;;-0.14;100.00
13348;BME280;6743;49.934;9.138;2024-01-16T08:48:03;99924.53;;;-0.12;100.00
13348;BME280;6743;49.934;9.138;2024-01-16T08:50:29;99886.91;;;-0.33;100.00
13348;BME280;6743;49.934;9.138;2024-01-16T08:52:55;99925.37;;;-0.12;100.00
13348;BME280;6743;49.934;9.138;2024-01-16T08:55:21;99927.06;;;-0.11;100.00
13348;BME280;6743;49.934;9.138;2024-01-16T08:57:48;99925.19;;;-0.09;100.00
13348;BME280;6743;49.934;9.138;2024-01-16T09:00:14;99935.62;;;-0.09;100.00
13348;BME280;6743;49.934;9.138;2024-01-16T09:02:43;99937.28;;;-0.08;100.00
13348;BME280;6743;49.934;9.138;2024-01-16T09:05:09;99941.53;;;-0.07;100.00
13348;BME280;6743;49.934;9.138;2024-01-16T09:07:38;99943.22;;;-0.06;100.00
13348;BME280;6743;49.934;9.138;2024-01-16T09:10:08;99919.00;;;-0.20;100.00
13348;BME280;6743;49.934;9.138;2024-01-16T09:12:34;99948.22;;;-0.03;100.00
13348;BME280;6743;49.934;9.138;2024-01-16T09:15:00;99954.19;;;-0.01;100.00
13348;BME280;6743;49.934;9.138;2024-01-16T09:17:29;99953.94;;;0.03;100.00
13348;BME280;6743;49.934;9.138;2024-01-16T09:19:58;99946.22;;;0.01;100.00
13348;BME280;6743;49.934;9.138;2024-01-16T09:22:24;99948.75;;;0.03;100.00
13348;BME280;6743;49.934;9.138;2024-01-16T09:24:50;99881.94;;;-0.36;100.00
13348;BME280;6743;49.934;9.138;2024-01-16T09:27:16;99951.16;;;0.06;100.00
13348;BME280;6743;49.934;9.138;2024-01-16T09:29:43;99951.00;;;0.07;100.00
13348;BME280;6743;49.934;9.138;2024-01-16T09:32:10;99951.84;;;0.08;100.00
13348;BME280;6743;49.934;9.138;2024-01-16T09:34:36;99955.28;;;0.08;100.00
13348;BME280;6743;49.934;9.138;2024-01-16T09:37:06;99954.25;;;0.11;100.00
13348;BME280;6743;49.934;9.138;2024-01-16T09:39:32;99954.25;;;0.11;100.00
13348;BME280;6743;49.934;9.138;2024-01-16T09:42:03;99958.53;;;0.12;100.00
13348;BME280;6743;49.934;9.138;2024-01-16T09:44:29;99953.22;;;0.13;100.00
13348;BME280;6743;49.934;9.138;2024-01-16T09:46:57;99953.09;;;0.15;100.00
13348;BME280;6743;49.934;9.138;2024-01-16T09:49:24;99953.84;;;0.17;100.00
13348;BME280;6743;49.934;9.138;2024-01-16T09:51:53;99961.56;;;0.18;100.00
13348;BME280;6743;49.934;9.138;2024-01-16T09:54:19;99964.69;;;0.23;100.00
13348;BME280;6743;49.934;9.138;2024-01-16T09:56:51;99962.91;;;0.24;100.00
13348;BME280;6743;49.934;9.138;2024-01-16T09:59:20;99953.50;;;0.21;100.00
13348;BME280;6743;49.934;9.138;2024-01-16T10:01:48;99962.56;;;0.28;100.00
13348;BME280;6743;49.934;9.138;2024-01-16T10:04:15;99957.16;;;0.31;100.00
13348;BME280;6743;49.934;9.138;2024-01-16T10:06:45;99936.41;;;0.17;100.00
13348;BME280;6743;49.934;9.138;2024-01-16T10:09:11;99956.81;;;0.36;100.00
13348;BME280;6743;49.934;9.138;2024-01-16T10:11:41;99949.00;;;0.36;100.00
13348;BME280;6743;49.934;9.138;2024-01-16T10:14:07;99956.00;;;0.35;100.00
13348;BME280;6743;49.934;9.138;2024-01-16T10:16:56;99946.19;;;0.39;100.00
13348;BME280;6743;49.934;9.138;2024-01-16T10:19:23;99957.22;;;0.43;100.00
13348;BME280;6743;49.934;9.138;2024-01-16T10:21:51;99953.78;;;0.42;100.00
13348;BME280;6743;49.934;9.138;2024-01-16T10:24:20;99954.50;;;0.44;100.00
13348;BME280;6743;49.934;9.138;2024-01-16T10:26:57;99929.19;;;0.33;100.00
13348;BME280;6743;49.934;9.138;2024-01-16T10:29:23;99943.13;;;0.45;100.00
13348;BME280;6743;49.934;9.138;2024-01-16T10:31:49;99950.63;;;0.50;100.00
13348;BME280;6743;49.934;9.138;2024-01-16T10:34:22;99956.59;;;0.52;100.00
13348;BME280;6743;49.934;9.138;2024-01-16T10:36:58;99943.53;;;0.52;100.00
13348;BME280;6743;49.934;9.138;2024-01-16T10:39:25;99942.69;;;0.51;100.00
13348;BME280;6743;49.934;9.138;2024-01-16T10:41:54;99939.16;;;0.52;100.00
13348;BME280;6743;49.934;9.138;2024-01-16T10:44:21;99932.16;;;0.53;100.00
13348;BME280;6743;49.934;9.138;2024-01-16T10:46:47;99927.03;;;0.51;100.00
13348;BME280;6743;49.934;9.138;2024-01-16T10:49:13;99933.72;;;0.55;100.00
13348;BME280;6743;49.934;9.138;2024-01-16T10:51:42;99926.72;;;0.56;100.00
13348;BME280;6743;49.934;9.138;2024-01-16T10:54:12;99884.22;;;0.30;100.00
13348;BME280;6743;49.934;9.138;2024-01-16T10:56:42;99899.72;;;0.44;100.00
13348;BME280;6743;49.934;9.138;2024-01-16T10:59:16;99926.41;;;0.60;100.00
13348;BME280;6743;49.934;9.138;2024-01-16T11:01:49;99927.22;;;0.61;100.00
13348;BME280;6743;49.934;9.138;2024-01-16T11:04:17;99917.41;;;0.64;100.00
13348;BME280;6743;49.934;9.138;2024-01-16T11:06:43;99918.03;;;0.68;100.00
13348;BME280;6743;49.934;9.138;2024-01-16T11:09:13;99912.66;;;0.69;100.00
13348;BME280;6743;49.934;9.138;2024-01-16T11:11:42;99917.78;;;0.71;100.00
13348;BME280;6743;49.934;9.138;2024-01-16T11:14:11;99920.19;;;0.74;100.00
13348;BME280;6743;49.934;9.138;2024-01-16T11:16:38;99921.84;;;0.75;100.00
13348;BME280;6743;49.934;9.138;2024-01-16T11:19:08;99926.00;;;0.77;100.00
13348;BME280;6743;49.934;9.138;2024-01-16T11:21:37;99917.97;;;0.81;100.00
13348;BME280;6743;49.934;9.138;2024-01-16T11:24:04;99910.13;;;0.81;100.00
13348;BME280;6743;49.934;9.138;2024-01-16T11:26:32;99908.00;;;0.86;100.00
13348;BME280;6743;49.934;9.138;2024-01-16T11:28:59;99907.81;;;0.89;100.00
13348;BME280;6743;49.934;9.138;2024-01-16T11:31:33;99906.62;;;0.93;100.00
13348;BME280;6743;49.934;9.138;2024-01-16T11:34:03;99891.78;;;0.93;100.00
13348;BME280;6743;49.934;9.138;2024-01-16T11:36:49;99900.84;;;1.00;100.00
13348;BME280;6743;49.934;9.138;2024-01-16T11:39:18;99890.03;;;1.05;100.00
13348;BME280;6743;49.934;9.138;2024-01-16T11:41:49;99884.25;;;1.12;100.00
13348;BME280;6743;49.934;9.138;2024-01-16T11:44:41;99875.25;;;1.16;100.00
13348;BME280;6743;49.934;9.138;2024-01-16T11:47:07;99865.41;;;1.20;100.00
13348;BME280;6743;49.934;9.138;2024-01-16T11:49:37;99843.53;;;1.10;100.00
13348;BME280;6743;49.934;9.138;2024-01-16T11:52:04;99868.00;;;1.20;100.00
13348;BME280;6743;49.934;9.138;2024-01-16T11:54:30;99854.59;;;1.25;100.00
13348;BME280;6743;49.934;9.138;2024-01-16T11:57:34;99843.91;;;1.28;100.00
13348;BME280;6743;49.934;9.138;2024-01-16T12:00:03;99837.50;;;1.32;100.00
13348;BME280;6743;49.934;9.138;2024-01-16T12:02:56;99837.91;;;1.38;100.00
13348;BME280;6743;49.934;9.138;2024-01-16T12:05:22;99835.97;;;1.40;100.00
13348;BME280;6743;49.934;9.138;2024-01-16T12:07:49;99838.25;;;1.45;100.00
13348;BME280;6743;49.934;9.138;2024-01-16T12:10:16;99831.84;;;1.49;100.00
13348;BME280;6743;49.934;9.138;2024-01-16T12:12:45;99816.53;;;1.44;100.00
13348;BME280;6743;49.934;9.138;2024-01-16T12:15:15;99822.78;;;1.53;100.00
13348;BME280;6743;49.934;9.138;2024-01-16T12:17:53;99828.53;;;1.58;100.00
13348;BME280;6743;49.934;9.138;2024-01-16T12:20:21;99816.03;;;1.62;100.00
13348;BME280;6743;49.934;9.138;2024-01-16T12:22:55;99821.88;;;1.65;100.00
13348;BME280;6743;49.934;9.138;2024-01-16T12:25:22;99796.53;;;1.54;100.00
13348;BME280;6743;49.934;9.138;2024-01-16T12:27:55;99814.25;;;1.62;100.00
13348;BME280;6743;49.934;9.138;2024-01-16T12:30:24;99812.72;;;1.71;100.00
13348;BME280;6743;49.934;9.138;2024-01-16T12:33:03;99802.37;;;1.69;100.00
13348;BME280;6743;49.934;9.138;2024-01-16T12:35:30;99814.50;;;1.70;100.00
13348;BME280;6743;49.934;9.138;2024-01-16T12:38:00;99807.81;;;1.66;100.00
13348;BME280;6743;49.934;9.138;2024-01-16T12:40:27;99784.19;;;1.56;100.00
13348;BME280;6743;49.934;9.138;2024-01-16T12:42:54;99797.13;;;1.69;100.00
13348;BME280;6743;49.934;9.138;2024-01-16T12:45:23;99793.47;;;1.72;100.00
13348;BME280;6743;49.934;9.138;2024-01-16T12:47:53;99790.47;;;1.76;100.00
13348;BME280;6743;49.934;9.138;2024-01-16T12:50:20;99783.47;;;1.77;100.00
13348;BME280;6743;49.934;9.138;2024-01-16T12:52:50;99779.31;;;1.74;100.00
13348;BME280;6743;49.934;9.138;2024-01-16T12:55:26;99782.06;;;1.73;100.00
13348;BME280;6743;49.934;9.138;2024-01-16T12:58:16;99783.84;;;1.72;100.00
13348;BME280;6743;49.934;9.138;2024-01-16T13:00:43;99780.97;;;1.75;100.00
13348;BME280;6743;49.934;9.138;2024-01-16T13:03:14;99774.06;;;1.74;100.00
13348;BME280;6743;49.934;9.138;2024-01-16T13:05:42;99775.84;;;1.74;100.00
13348;BME280;6743;49.934;9.138;2024-01-16T13:08:08;99784.66;;;1.73;100.00